sensor_id;sensor_type;location;lat;lon;timestamp;P1;durP1;ratioP1;P2;durP2;ratioP2
35644;SDS011;21764;52.042;6.830;2023-04-25T00:00:42;10.02;;;4.65;;
35644;SDS011;21764;52.042;6.830;2023-04-25T00:05:42;13.70;;;4.78;;
35644;SDS011;21764;52.042;6.830;2023-04-25T00:10:44;26.48;;;6.13;;
35644;SDS011;21764;52.042;6.830;2023-04-25T00:15:44;23.58;;;6.40;;
35644;SDS011;21764;52.042;6.830;2023-04-25T00:20:46;31.20;;;5.70;;
35644;SDS011;21764;52.042;6.830;2023-04-25T00:25:47;22.45;;;5.93;;
35644;SDS011;21764;52.042;6.830;2023-04-25T00:30:49;34.60;;;7.95;;
35644;SDS011;21764;52.042;6.830;2023-04-25T00:35:50;43.47;;;8.15;;
35644;SDS011;21764;52.042;6.830;2023-04-25T00:40:51;42.17;;;8.80;;
35644;SDS011;21764;52.042;6.830;2023-04-25T00:45:52;39.53;;;7.60;;
35644;SDS011;21764;52.042;6.830;2023-04-25T00:50:54;43.15;;;7.43;;
35644;SDS011;21764;52.042;6.830;2023-04-25T00:55:57;38.63;;;7.88;;
35644;SDS011;21764;52.042;6.830;2023-04-25T01:00:58;43.03;;;7.68;;
35644;SDS011;21764;52.042;6.830;2023-04-25T01:06:00;60.17;;;8.52;;
35644;SDS011;21764;52.042;6.830;2023-04-25T01:11:02;46.17;;;8.13;;
35644;SDS011;21764;52.042;6.830;2023-04-25T01:16:03;50.63;;;8.10;;
35644;SDS011;21764;52.042;6.830;2023-04-25T01:21:06;40.35;;;7.72;;
35644;SDS011;21764;52.042;6.830;2023-04-25T01:26:10;46.88;;;7.38;;
35644;SDS011;21764;52.042;6.830;2023-04-25T01:31:11;41.38;;;7.05;;
35644;SDS011;21764;52.042;6.830;2023-04-25T01:36:12;34.83;;;7.78;;
35644;SDS011;21764;52.042;6.830;2023-04-25T01:41:14;46.95;;;7.13;;
35644;SDS011;21764;52.042;6.830;2023-04-25T01:46:16;43.85;;;7.07;;
35644;SDS011;21764;52.042;6.830;2023-04-25T01:51:16;39.65;;;7.72;;
35644;SDS011;21764;52.042;6.830;2023-04-25T01:56:18;39.58;;;7.45;;
35644;SDS011;21764;52.042;6.830;2023-04-25T02:01:20;44.55;;;7.15;;
35644;SDS011;21764;52.042;6.830;2023-04-25T02:06:21;42.00;;;7.90;;
35644;SDS011;21764;52.042;6.830;2023-04-25T02:11:22;32.97;;;6.65;;
35644;SDS011;21764;52.042;6.830;2023-04-25T02:16:23;32.90;;;6.97;;
35644;SDS011;21764;52.042;6.830;2023-04-25T02:21:23;36.30;;;6.55;;
35644;SDS011;21764;52.042;6.830;2023-04-25T02:26:24;36.13;;;6.43;;
35644;SDS011;21764;52.042;6.830;2023-04-25T02:31:25;36.20;;;6.07;;
35644;SDS011;21764;52.042;6.830;2023-04-25T02:36:25;35.72;;;6.80;;
35644;SDS011;21764;52.042;6.830;2023-04-25T02:41:26;44.45;;;7.05;;
35644;SDS011;21764;52.042;6.830;2023-04-25T02:46:27;38.30;;;7.07;;
35644;SDS011;21764;52.042;6.830;2023-04-25T02:51:28;31.17;;;7.03;;
35644;SDS011;21764;52.042;6.830;2023-04-25T02:56:28;29.45;;;6.28;;
35644;SDS011;21764;52.042;6.830;2023-04-25T03:01:29;41.92;;;6.45;;
35644;SDS011;21764;52.042;6.830;2023-04-25T03:06:30;34.08;;;4.93;;
35644;SDS011;21764;52.042;6.830;2023-04-25T03:11:30;42.10;;;6.38;;
35644;SDS011;21764;52.042;6.830;2023-04-25T03:16:31;46.22;;;6.72;;
35644;SDS011;21764;52.042;6.830;2023-04-25T03:21:32;23.35;;;5.65;;
35644;SDS011;21764;52.042;6.830;2023-04-25T03:26:34;35.88;;;6.55;;
35644;SDS011;21764;52.042;6.830;2023-04-25T03:31:34;28.52;;;6.15;;
35644;SDS011;21764;52.042;6.830;2023-04-25T03:36:35;32.20;;;6.32;;
35644;SDS011;21764;52.042;6.830;2023-04-25T03:41:35;25.92;;;5.38;;
35644;SDS011;21764;52.042;6.830;2023-04-25T03:46:36;35.85;;;6.50;;
35644;SDS011;21764;52.042;6.830;2023-04-25T03:51:37;28.80;;;5.72;;
35644;SDS011;21764;52.042;6.830;2023-04-25T03:56:38;29.88;;;5.32;;
35644;SDS011;21764;52.042;6.830;2023-04-25T04:01:41;28.63;;;6.18;;
35644;SDS011;21764;52.042;6.830;2023-04-25T04:06:41;27.95;;;5.93;;
35644;SDS011;21764;52.042;6.830;2023-04-25T04:11:42;23.58;;;6.15;;
35644;SDS011;21764;52.042;6.830;2023-04-25T04:16:42;22.50;;;6.22;;
35644;SDS011;21764;52.042;6.830;2023-04-25T04:21:43;28.33;;;6.38;;
35644;SDS011;21764;52.042;6.830;2023-04-25T04:26:44;24.20;;;6.00;;
35644;SDS011;21764;52.042;6.830;2023-04-25T04:31:44;34.95;;;6.10;;
35644;SDS011;21764;52.042;6.830;2023-04-25T04:36:45;33.78;;;7.15;;
35644;SDS011;21764;52.042;6.830;2023-04-25T04:41:46;29.27;;;6.50;;
35644;SDS011;21764;52.042;6.830;2023-04-25T04:46:48;26.48;;;6.22;;
35644;SDS011;21764;52.042;6.830;2023-04-25T04:51:49;32.47;;;6.72;;
35644;SDS011;21764;52.042;6.830;2023-04-25T04:56:50;29.10;;;7.30;;
35644;SDS011;21764;52.042;6.830;2023-04-25T05:01:52;35.67;;;8.85;;
35644;SDS011;21764;52.042;6.830;2023-04-25T05:06:52;27.27;;;6.97;;
35644;SDS011;21764;52.042;6.830;2023-04-25T05:11:53;32.75;;;7.35;;
35644;SDS011;21764;52.042;6.830;2023-04-25T05:16:54;29.33;;;6.95;;
35644;SDS011;21764;52.042;6.830;2023-04-25T05:21:55;27.08;;;7.22;;
35644;SDS011;21764;52.042;6.830;2023-04-25T05:26:56;32.40;;;7.55;;
35644;SDS011;21764;52.042;6.830;2023-04-25T05:31:57;42.83;;;7.43;;
35644;SDS011;21764;52.042;6.830;2023-04-25T05:36:58;30.42;;;7.28;;
35644;SDS011;21764;52.042;6.830;2023-04-25T05:41:59;32.67;;;6.93;;
35644;SDS011;21764;52.042;6.830;2023-04-25T05:47:01;36.22;;;6.80;;
35644;SDS011;21764;52.042;6.830;2023-04-25T05:52:02;38.10;;;7.35;;
35644;SDS011;21764;52.042;6.830;2023-04-25T05:57:02;28.23;;;6.10;;
35644;SDS011;21764;52.042;6.830;2023-04-25T06:02:03;27.73;;;5.72;;
35644;SDS011;21764;52.042;6.830;2023-04-25T06:07:04;29.30;;;5.85;;
35644;SDS011;21764;52.042;6.830;2023-04-25T06:12:05;29.55;;;6.00;;
35644;SDS011;21764;52.042;6.830;2023-04-25T06:17:06;31.25;;;6.55;;
35644;SDS011;21764;52.042;6.830;2023-04-25T06:22:08;23.48;;;4.95;;
35644;SDS011;21764;52.042;6.830;2023-04-25T06:27:09;24.30;;;5.38;;
35644;SDS011;21764;52.042;6.830;2023-04-25T06:32:09;26.10;;;4.95;;
35644;SDS011;21764;52.042;6.830;2023-04-25T06:37:10;29.10;;;4.88;;
35644;SDS011;21764;52.042;6.830;2023-04-25T06:42:10;23.60;;;4.50;;
35644;SDS011;21764;52.042;6.830;2023-04-25T06:47:11;21.10;;;4.68;;
35644;SDS011;21764;52.042;6.830;2023-04-25T06:52:12;25.60;;;4.68;;
35644;SDS011;21764;52.042;6.830;2023-04-25T06:57:12;15.00;;;3.88;;
35644;SDS011;21764;52.042;6.830;2023-04-25T07:02:13;20.33;;;3.90;;
35644;SDS011;21764;52.042;6.830;2023-04-25T07:07:14;20.38;;;4.25;;
35644;SDS011;21764;52.042;6.830;2023-04-25T07:12:14;18.40;;;3.97;;
35644;SDS011;21764;52.042;6.830;2023-04-25T07:17:15;25.02;;;4.30;;
35644;SDS011;21764;52.042;6.830;2023-04-25T07:22:16;21.90;;;4.72;;
35644;SDS011;21764;52.042;6.830;2023-04-25T07:27:17;25.50;;;4.45;;
35644;SDS011;21764;52.042;6.830;2023-04-25T07:32:18;16.48;;;4.18;;
35644;SDS011;21764;52.042;6.830;2023-04-25T07:37:18;16.83;;;3.75;;
35644;SDS011;21764;52.042;6.830;2023-04-25T07:42:19;11.60;;;3.20;;
35644;SDS011;21764;52.042;6.830;2023-04-25T07:47:21;13.00;;;3.05;;
35644;SDS011;21764;52.042;6.830;2023-04-25T07:52:21;15.95;;;3.70;;
35644;SDS011;21764;52.042;6.830;2023-04-25T07:57:22;16.05;;;4.20;;
35644;SDS011;21764;52.042;6.830;2023-04-25T08:02:24;11.98;;;2.83;;
35644;SDS011;21764;52.042;6.830;2023-04-25T08:07:28;16.65;;;3.70;;
35644;SDS011;21764;52.042;6.830;2023-04-25T08:12:28;15.15;;;3.38;;
35644;SDS011;21764;52.042;6.830;2023-04-25T08:17:29;15.98;;;3.25;;
35644;SDS011;21764;52.042;6.830;2023-04-25T08:22:30;14.57;;;3.38;;
35644;SDS011;21764;52.042;6.830;2023-04-25T08:27:30;19.23;;;3.28;;
35644;SDS011;21764;52.042;6.830;2023-04-25T08:32:31;15.90;;;2.88;;
35644;SDS011;21764;52.042;6.830;2023-04-25T08:37:32;12.20;;;2.83;;
35644;SDS011;21764;52.042;6.830;2023-04-25T08:42:33;12.15;;;2.70;;
35644;SDS011;21764;52.042;6.830;2023-04-25T08:47:35;20.00;;;2.88;;
35644;SDS011;21764;52.042;6.830;2023-04-25T08:52:44;13.25;;;2.58;;
35644;SDS011;21764;52.042;6.830;2023-04-25T08:57:48;12.93;;;2.15;;
35644;SDS011;21764;52.042;6.830;2023-04-25T09:02:50;17.05;;;2.88;;
35644;SDS011;21764;52.042;6.830;2023-04-25T09:07:51;11.60;;;3.15;;
35644;SDS011;21764;52.042;6.830;2023-04-25T09:13:01;14.80;;;2.83;;
35644;SDS011;21764;52.042;6.830;2023-04-25T09:18:21;16.27;;;3.13;;
35644;SDS011;21764;52.042;6.830;2023-04-25T09:23:24;12.57;;;2.50;;
35644;SDS011;21764;52.042;6.830;2023-04-25T09:28:26;12.95;;;2.75;;
35644;SDS011;21764;52.042;6.830;2023-04-25T09:33:28;15.82;;;2.75;;
35644;SDS011;21764;52.042;6.830;2023-04-25T09:38:31;12.57;;;2.30;;
35644;SDS011;21764;52.042;6.830;2023-04-25T09:43:32;12.27;;;2.25;;
35644;SDS011;21764;52.042;6.830;2023-04-25T09:48:32;14.07;;;2.47;;
35644;SDS011;21764;52.042;6.830;2023-04-25T09:53:37;12.00;;;2.30;;
35644;SDS011;21764;52.042;6.830;2023-04-25T09:58:40;9.90;;;2.22;;
35644;SDS011;21764;52.042;6.830;2023-04-25T10:03:41;14.10;;;2.42;;
35644;SDS011;21764;52.042;6.830;2023-04-25T10:08:42;8.57;;;2.17;;
35644;SDS011;21764;52.042;6.830;2023-04-25T10:13:44;8.50;;;2.47;;
35644;SDS011;21764;52.042;6.830;2023-04-25T10:18:47;8.48;;;2.50;;
35644;SDS011;21764;52.042;6.830;2023-04-25T10:23:48;8.32;;;2.22;;
35644;SDS011;21764;52.042;6.830;2023-04-25T10:29:00;7.78;;;1.83;;
35644;SDS011;21764;52.042;6.830;2023-04-25T10:34:02;8.30;;;2.03;;
35644;SDS011;21764;52.042;6.830;2023-04-25T10:39:04;7.95;;;2.10;;
35644;SDS011;21764;52.042;6.830;2023-04-25T10:44:09;4.13;;;1.38;;
35644;SDS011;21764;52.042;6.830;2023-04-25T10:49:10;4.10;;;1.40;;
35644;SDS011;21764;52.042;6.830;2023-04-25T10:54:10;8.55;;;1.77;;
35644;SDS011;21764;52.042;6.830;2023-04-25T10:59:12;9.23;;;1.92;;
35644;SDS011;21764;52.042;6.830;2023-04-25T11:04:22;8.68;;;1.25;;
35644;SDS011;21764;52.042;6.830;2023-04-25T11:09:29;7.90;;;2.03;;
35644;SDS011;21764;52.042;6.830;2023-04-25T11:14:32;9.00;;;1.73;;
35644;SDS011;21764;52.042;6.830;2023-04-25T11:19:33;8.48;;;2.25;;
35644;SDS011;21764;52.042;6.830;2023-04-25T11:24:34;9.25;;;2.05;;
35644;SDS011;21764;52.042;6.830;2023-04-25T11:29:36;7.00;;;1.90;;
35644;SDS011;21764;52.042;6.830;2023-04-25T11:34:37;8.40;;;1.80;;
35644;SDS011;21764;52.042;6.830;2023-04-25T11:39:37;10.43;;;1.98;;
35644;SDS011;21764;52.042;6.830;2023-04-25T11:44:39;7.75;;;1.90;;
35644;SDS011;21764;52.042;6.830;2023-04-25T11:49:40;8.57;;;1.90;;
35644;SDS011;21764;52.042;6.830;2023-04-25T11:54:41;11.82;;;2.08;;
35644;SDS011;21764;52.042;6.830;2023-04-25T11:59:44;9.32;;;2.45;;
35644;SDS011;21764;52.042;6.830;2023-04-25T12:04:45;12.60;;;2.40;;
35644;SDS011;21764;52.042;6.830;2023-04-25T12:09:51;12.55;;;1.75;;
35644;SDS011;21764;52.042;6.830;2023-04-25T12:14:53;12.07;;;2.08;;
35644;SDS011;21764;52.042;6.830;2023-04-25T12:19:55;11.52;;;2.30;;
35644;SDS011;21764;52.042;6.830;2023-04-25T12:24:55;8.48;;;2.35;;
35644;SDS011;21764;52.042;6.830;2023-04-25T12:29:58;11.43;;;2.08;;
35644;SDS011;21764;52.042;6.830;2023-04-25T12:34:59;8.43;;;1.75;;
35644;SDS011;21764;52.042;6.830;2023-04-25T12:39:59;9.77;;;2.17;;
35644;SDS011;21764;52.042;6.830;2023-04-25T12:45:00;8.18;;;1.60;;
35644;SDS011;21764;52.042;6.830;2023-04-25T12:50:01;10.05;;;1.70;;
35644;SDS011;21764;52.042;6.830;2023-04-25T12:55:02;11.18;;;2.30;;
35644;SDS011;21764;52.042;6.830;2023-04-25T13:00:03;8.90;;;2.25;;
35644;SDS011;21764;52.042;6.830;2023-04-25T13:05:06;13.25;;;2.50;;
35644;SDS011;21764;52.042;6.830;2023-04-25T13:10:07;10.80;;;1.80;;
35644;SDS011;21764;52.042;6.830;2023-04-25T13:15:08;12.43;;;2.53;;
35644;SDS011;21764;52.042;6.830;2023-04-25T13:20:11;9.68;;;2.03;;
35644;SDS011;21764;52.042;6.830;2023-04-25T13:25:11;5.78;;;1.83;;
35644;SDS011;21764;52.042;6.830;2023-04-25T13:30:12;10.27;;;1.98;;
35644;SDS011;21764;52.042;6.830;2023-04-25T13:35:13;11.15;;;2.00;;
35644;SDS011;21764;52.042;6.830;2023-04-25T13:40:15;10.20;;;2.00;;
35644;SDS011;21764;52.042;6.830;2023-04-25T13:45:15;8.70;;;1.83;;
35644;SDS011;21764;52.042;6.830;2023-04-25T13:50:16;9.27;;;1.83;;
35644;SDS011;21764;52.042;6.830;2023-04-25T13:55:17;9.07;;;1.95;;
35644;SDS011;21764;52.042;6.830;2023-04-25T14:00:18;5.90;;;1.95;;
35644;SDS011;21764;52.042;6.830;2023-04-25T14:05:20;9.45;;;1.83;;
35644;SDS011;21764;52.042;6.830;2023-04-25T14:10:20;6.93;;;1.73;;
35644;SDS011;21764;52.042;6.830;2023-04-25T14:15:21;6.38;;;1.85;;
35644;SDS011;21764;52.042;6.830;2023-04-25T14:20:22;8.38;;;1.70;;
35644;SDS011;21764;52.042;6.830;2023-04-25T14:25:24;9.65;;;1.70;;
35644;SDS011;21764;52.042;6.830;2023-04-25T14:30:25;8.52;;;1.95;;
35644;SDS011;21764;52.042;6.830;2023-04-25T14:35:26;23.45;;;11.77;;
35644;SDS011;21764;52.042;6.830;2023-04-25T14:40:26;11.98;;;4.97;;
35644;SDS011;21764;52.042;6.830;2023-04-25T14:45:27;11.18;;;1.77;;
35644;SDS011;21764;52.042;6.830;2023-04-25T14:50:28;9.15;;;2.63;;
35644;SDS011;21764;52.042;6.830;2023-04-25T14:55:28;9.75;;;1.98;;
35644;SDS011;21764;52.042;6.830;2023-04-25T15:00:29;8.18;;;1.98;;
35644;SDS011;21764;52.042;6.830;2023-04-25T15:05:31;8.05;;;1.70;;
35644;SDS011;21764;52.042;6.830;2023-04-25T15:10:32;7.03;;;1.70;;
35644;SDS011;21764;52.042;6.830;2023-04-25T15:15:33;7.25;;;1.45;;
35644;SDS011;21764;52.042;6.830;2023-04-25T15:20:33;8.30;;;2.10;;
35644;SDS011;21764;52.042;6.830;2023-04-25T15:25:34;7.70;;;1.90;;
35644;SDS011;21764;52.042;6.830;2023-04-25T15:30:35;7.53;;;2.15;;
35644;SDS011;21764;52.042;6.830;2023-04-25T15:35:36;6.45;;;1.85;;
35644;SDS011;21764;52.042;6.830;2023-04-25T15:40:37;11.77;;;2.50;;
35644;SDS011;21764;52.042;6.830;2023-04-25T15:45:38;11.40;;;2.20;;
35644;SDS011;21764;52.042;6.830;2023-04-25T15:50:38;10.80;;;2.30;;
35644;SDS011;21764;52.042;6.830;2023-04-25T15:55:40;14.35;;;2.65;;
35644;SDS011;21764;52.042;6.830;2023-04-25T16:00:41;10.10;;;2.45;;
35644;SDS011;21764;52.042;6.830;2023-04-25T16:05:42;11.25;;;2.08;;
35644;SDS011;21764;52.042;6.830;2023-04-25T16:10:43;11.88;;;2.35;;
35644;SDS011;21764;52.042;6.830;2023-04-25T16:15:44;14.52;;;2.63;;
35644;SDS011;21764;52.042;6.830;2023-04-25T16:20:44;5.30;;;1.80;;
35644;SDS011;21764;52.042;6.830;2023-04-25T16:25:45;9.07;;;1.83;;
35644;SDS011;21764;52.042;6.830;2023-04-25T16:30:46;9.23;;;2.50;;
35644;SDS011;21764;52.042;6.830;2023-04-25T16:35:46;8.27;;;1.77;;
35644;SDS011;21764;52.042;6.830;2023-04-25T16:40:49;14.68;;;3.25;;
35644;SDS011;21764;52.042;6.830;2023-04-25T16:45:49;12.13;;;1.73;;
35644;SDS011;21764;52.042;6.830;2023-04-25T16:50:50;7.70;;;1.80;;
35644;SDS011;21764;52.042;6.830;2023-04-25T16:55:52;7.97;;;1.90;;
35644;SDS011;21764;52.042;6.830;2023-04-25T17:00:53;14.00;;;2.40;;
35644;SDS011;21764;52.042;6.830;2023-04-25T17:05:54;14.13;;;2.42;;
35644;SDS011;21764;52.042;6.830;2023-04-25T17:11:00;13.63;;;4.22;;
35644;SDS011;21764;52.042;6.830;2023-04-25T17:16:01;16.42;;;3.65;;
35644;SDS011;21764;52.042;6.830;2023-04-25T17:21:05;19.67;;;6.57;;
35644;SDS011;21764;52.042;6.830;2023-04-25T17:26:06;11.10;;;3.88;;
35644;SDS011;21764;52.042;6.830;2023-04-25T17:31:07;17.33;;;4.60;;
35644;SDS011;21764;52.042;6.830;2023-04-25T17:36:08;13.00;;;2.38;;
35644;SDS011;21764;52.042;6.830;2023-04-25T17:41:09;6.72;;;1.90;;
35644;SDS011;21764;52.042;6.830;2023-04-25T17:46:12;10.10;;;2.15;;
35644;SDS011;21764;52.042;6.830;2023-04-25T17:51:12;10.73;;;2.40;;
35644;SDS011;21764;52.042;6.830;2023-04-25T17:56:13;10.30;;;2.17;;
35644;SDS011;21764;52.042;6.830;2023-04-25T18:01:15;11.02;;;2.05;;
35644;SDS011;21764;52.042;6.830;2023-04-25T18:06:16;11.48;;;2.72;;
35644;SDS011;21764;52.042;6.830;2023-04-25T18:11:17;14.95;;;2.60;;
35644;SDS011;21764;52.042;6.830;2023-04-25T18:16:17;18.42;;;2.78;;
35644;SDS011;21764;52.042;6.830;2023-04-25T18:21:19;10.07;;;2.13;;
35644;SDS011;21764;52.042;6.830;2023-04-25T18:26:20;12.90;;;2.50;;
35644;SDS011;21764;52.042;6.830;2023-04-25T18:31:22;13.35;;;2.72;;
35644;SDS011;21764;52.042;6.830;2023-04-25T18:36:24;10.18;;;2.55;;
35644;SDS011;21764;52.042;6.830;2023-04-25T18:41:27;11.50;;;2.60;;
35644;SDS011;21764;52.042;6.830;2023-04-25T18:46:29;12.85;;;2.20;;
35644;SDS011;21764;52.042;6.830;2023-04-25T18:51:31;8.38;;;2.15;;
35644;SDS011;21764;52.042;6.830;2023-04-25T18:56:32;15.73;;;3.63;;
35644;SDS011;21764;52.042;6.830;2023-04-25T19:01:32;9.05;;;2.60;;
35644;SDS011;21764;52.042;6.830;2023-04-25T19:06:33;17.58;;;4.13;;
35644;SDS011;21764;52.042;6.830;2023-04-25T19:11:35;9.77;;;2.75;;
35644;SDS011;21764;52.042;6.830;2023-04-25T19:16:36;11.13;;;2.40;;
35644;SDS011;21764;52.042;6.830;2023-04-25T19:21:40;15.35;;;3.50;;
35644;SDS011;21764;52.042;6.830;2023-04-25T19:26:41;16.00;;;3.40;;
35644;SDS011;21764;52.042;6.830;2023-04-25T19:31:42;10.10;;;3.67;;
35644;SDS011;21764;52.042;6.830;2023-04-25T19:36:44;14.40;;;3.53;;
35644;SDS011;21764;52.042;6.830;2023-04-25T19:41:52;11.07;;;3.70;;
35644;SDS011;21764;52.042;6.830;2023-04-25T19:46:53;13.07;;;4.15;;
35644;SDS011;21764;52.042;6.830;2023-04-25T19:51:54;11.05;;;3.83;;
35644;SDS011;21764;52.042;6.830;2023-04-25T19:56:55;14.15;;;4.10;;
35644;SDS011;21764;52.042;6.830;2023-04-25T20:01:58;14.77;;;3.80;;
35644;SDS011;21764;52.042;6.830;2023-04-25T20:07:00;13.00;;;4.38;;
35644;SDS011;21764;52.042;6.830;2023-04-25T20:12:01;21.75;;;5.07;;
35644;SDS011;21764;52.042;6.830;2023-04-25T20:17:03;23.17;;;6.80;;
35644;SDS011;21764;52.042;6.830;2023-04-25T20:22:03;23.55;;;6.65;;
35644;SDS011;21764;52.042;6.830;2023-04-25T20:27:07;21.73;;;5.63;;
35644;SDS011;21764;52.042;6.830;2023-04-25T20:32:07;15.35;;;4.65;;
35644;SDS011;21764;52.042;6.830;2023-04-25T20:37:08;16.95;;;4.22;;
35644;SDS011;21764;52.042;6.830;2023-04-25T20:42:09;10.63;;;4.40;;
35644;SDS011;21764;52.042;6.830;2023-04-25T20:47:10;13.23;;;4.90;;
35644;SDS011;21764;52.042;6.830;2023-04-25T20:52:10;25.90;;;5.47;;
35644;SDS011;21764;52.042;6.830;2023-04-25T20:57:12;16.13;;;4.85;;
35644;SDS011;21764;52.042;6.830;2023-04-25T21:02:14;14.60;;;3.72;;
35644;SDS011;21764;52.042;6.830;2023-04-25T21:07:15;14.13;;;3.97;;
35644;SDS011;21764;52.042;6.830;2023-04-25T21:12:16;23.20;;;4.43;;
35644;SDS011;21764;52.042;6.830;2023-04-25T21:17:17;17.40;;;5.43;;
35644;SDS011;21764;52.042;6.830;2023-04-25T21:22:18;18.20;;;4.40;;
35644;SDS011;21764;52.042;6.830;2023-04-25T21:27:19;19.27;;;5.00;;
35644;SDS011;21764;52.042;6.830;2023-04-25T21:32:19;15.18;;;5.22;;
35644;SDS011;21764;52.042;6.830;2023-04-25T21:37:20;15.00;;;4.78;;
35644;SDS011;21764;52.042;6.830;2023-04-25T21:42:22;23.58;;;5.65;;
35644;SDS011;21764;52.042;6.830;2023-04-25T21:47:22;13.15;;;4.78;;
35644;SDS011;21764;52.042;6.830;2023-04-25T21:52:23;17.48;;;7.13;;
35644;SDS011;21764;52.042;6.830;2023-04-25T21:57:24;26.20;;;9.05;;
35644;SDS011;21764;52.042;6.830;2023-04-25T22:02:25;36.90;;;12.05;;
35644;SDS011;21764;52.042;6.830;2023-04-25T22:07:28;36.72;;;13.23;;
35644;SDS011;21764;52.042;6.830;2023-04-25T22:12:30;41.90;;;12.13;;
35644;SDS011;21764;52.042;6.830;2023-04-25T22:17:31;28.25;;;9.27;;
35644;SDS011;21764;52.042;6.830;2023-04-25T22:22:32;27.02;;;7.00;;
35644;SDS011;21764;52.042;6.830;2023-04-25T22:27:33;24.98;;;6.05;;
35644;SDS011;21764;52.042;6.830;2023-04-25T22:32:34;18.20;;;5.50;;
35644;SDS011;21764;52.042;6.830;2023-04-25T22:37:35;15.38;;;6.53;;
35644;SDS011;21764;52.042;6.830;2023-04-25T22:42:39;13.35;;;4.82;;
35644;SDS011;21764;52.042;6.830;2023-04-25T22:47:41;13.88;;;5.20;;
35644;SDS011;21764;52.042;6.830;2023-04-25T22:52:42;21.50;;;6.20;;
35644;SDS011;21764;52.042;6.830;2023-04-25T22:57:43;18.67;;;6.22;;
35644;SDS011;21764;52.042;6.830;2023-04-25T23:02:44;17.05;;;5.55;;
35644;SDS011;21764;52.042;6.830;2023-04-25T23:07:46;13.65;;;5.43;;
35644;SDS011;21764;52.042;6.830;2023-04-25T23:12:48;15.35;;;5.70;;
35644;SDS011;21764;52.042;6.830;2023-04-25T23:17:49;21.42;;;6.05;;
35644;SDS011;21764;52.042;6.830;2023-04-25T23:22:49;21.30;;;5.72;;
35644;SDS011;21764;52.042;6.830;2023-04-25T23:27:50;16.77;;;5.60;;
35644;SDS011;21764;52.042;6.830;2023-04-25T23:32:51;17.40;;;6.28;;
35644;SDS011;21764;52.042;6.830;2023-04-25T23:37:52;20.50;;;6.20;;
35644;SDS011;21764;52.042;6.830;2023-04-25T23:42:53;16.17;;;6.50;;
35644;SDS011;21764;52.042;6.830;2023-04-25T23:47:54;26.88;;;6.68;;
35644;SDS011;21764;52.042;6.830;2023-04-25T23:52:55;19.70;;;6.95;;
35644;SDS011;21764;52.042;6.830;2023-04-25T23:57:56;22.90;;;7.70;;
